Terminal Aerodrome Forecast
Issued by NWS Duluth, MN

Home | Current Version | Previous Version | Text Only | Print | Product List | Glossary On
Versions: 1 2 3 4 5 6 7 8 9 10 11 12 13 14 15 16 17 18 19 20 21 22 23 24 25 26 27
000
FTUS43 KDLH 240522
TAFDLH
TAF
KDLH 240522Z 2406/2506 01006KT P6SM VCTS SCT025CB BKN100
     FM240800 09005KT 4SM BR SCT004 BKN030 WS020/20030KT
     FM241400 15007KT P6SM SCT250
     FM241700 20012KT P6SM SCT250
     FM250400 20010KT 6SM -SHRA SCT050 BKN100=

USA.gov is the U.S. government's official web portal to all federal, state and local government web resources and services.